Tiempo atmosférico en la estación meteorológica de Arico, Santa Cruz de Tenerife (418 m.)

Fecha
DESCASC
Temp. máxima en grados centígrados (hora)
DESCASC
Temp. mínima en grados centígrados (hora)
DESCASC
Temp. media en grados centígrados
DESCASC
Racha de viento máxima en m/sg (hora)
DESCASC
Velocidad máxima media en intervalos de 10 minutos(hora)
DESCASC
Precipitaciones diarias en mm
DESCASC
Precipitaciones de 00:00 a 06:00 en mm
DESCASC
Precipitaciones de 06:00 a 12:00 en mm
DESCASC
Precipitaciones de 12:00 a 18:00 en mm
DESCASC
Precipitaciones de 18:00 a 24:00 en mm
DESCASC
17-08-2017 33.8 (15:20) 19 (02:00) 26.4 13.06 (13:10) 7.78 (11:50) 0 0 0 0 0
16-08-2017 27.5 (13:00) 17.3 (05:10) 22.4 10.56 (09:50) 6.39 (14:20) 0 0 0 0 0
15-08-2017 26.1 (14:30) 17.3 (00:00) 21.7 9.17 (17:50) 5.83 (19:00) 0 0 0 0 0
14-08-2017 27.4 (14:30) 17.9 (04:20) 22.6 9.17 (14:50) 4.72 (12:00) 0 0 0 0 0
13-08-2017 28.7 (13:40) 19.1 (00:00) 23.9 8.89 (19:10) 6.67 (19:30) 0 0 0 0 0
12-08-2017 26.4 (18:00) 19.1 (00:00) 22.8 12.22 (12:50) 6.94 (12:30) 0 0 0 0 0
11-08-2017 27.3 (14:50) 18.2 (00:00) 22.8 14.44 (12:40) 8.89 (13:50) 0 0 0 0 0
10-08-2017 26.5 (15:50) 19 (00:00) 22.8 11.11 (14:50) 7.22 (13:30) 0 0 0 0 0
09-08-2017 29.4 (13:50) 20.3 (00:00) 24.8 10.56 (16:20) 7.78 (16:20) 0 0 0 0 0
08-08-2017 28.2 (00:00) 20.6 (00:00) 24.4 8.06 (14:10) 5.83 (13:10) 0 0 0 0 0
07-08-2017 32.6 (12:40) 20.5 (00:00) 26.5 6.39 (04:20) 3.89 (04:20) 0 0 0 0 0
06-08-2017 27.6 (11:20) 18.1 (00:00) 22.9 8.89 (14:30) 5.83 (14:30) 0 0 0 0 0
05-08-2017 26.7 (12:40) 18.4 (00:00) 22.6 7.78 (15:20) 5 (15:40) 0 0 0 0 0
04-08-2017 26.6 (13:20) 17.4 (00:00) 22 7.78 (13:50) 5 (00:30) 0 0 0 0 0
03-08-2017 24.2 (14:50) 17.2 (00:00) 20.7 12.78 (13:50) 8.61 (13:30) 0 0 0 0 0
02-08-2017 24.9 (15:30) 17.9 (00:00) 21.4 13.33 (15:50) 8.33 (14:20) 0 0 0 0 0
01-08-2017 26.2 (13:20) 17.3 (00:00) 21.8 10 (14:10) 6.39 (14:10) 0 0 0 0 0
31-07-2017 25.6 (14:00) 16.9 (00:00) 21.3 11.67 (17:50) 7.5 (15:30) 0 0 0 0 0
30-07-2017 26.7 (00:20) 18.2 (00:00) 22.5 9.17 (18:50) 5.83 (18:50) 0 0 0 0 0
29-07-2017 34 (17:30) 23.7 (00:00) 28.9 7.78 (01:00) 5 (01:10) 0 0 0 0 0
28-07-2017 39.2 (13:30) 22.8 (00:00) 31 11.39 (11:20) 6.67 (11:20) 0 0 0 0 0
27-07-2017 34.5 (14:50) 17.6 (00:00) 26.1 9.44 (14:20) 6.39 (14:20) 0 0 0 0 0
26-07-2017 27.4 (15:00) 17.7 (00:00) 22.6 7.5 (12:50) 5 (11:50) 0 0 0 0 0
25-07-2017 25.8 (13:20) 18 (00:00) 21.9 12.22 (12:50) 7.78 (15:10) 0 0 0 0 0
24-07-2017 27.3 (15:50) 17.1 (00:00) 22.2 12.78 (11:50) 7.22 (11:50) 0 0 0 0 0
23-07-2017 24.5 (14:10) 16.4 (00:00) 20.4 14.44 (10:40) 9.17 (15:40) 0 0 0 0 0
22-07-2017 24.5 (15:00) 16.5 (00:00) 20.5 15.83 (21:30) 9.72 (16:00) 0 0 0 0 0
21-07-2017 24 (13:30) 17 (00:00) 20.5 13.89 (11:50) 8.89 (17:40) 0 0 0 0 0
20-07-2017 23.6 (14:50) 17.2 (00:00) 20.4 12.78 (16:50) 7.78 (15:10) 0 0 0 0 0
19-07-2017 25.3 (14:30) 17.1 (00:00) 21.2 10.28 (12:50) 6.94 (14:40) 0 0 0 0 0

Gráficas

Temp. máximas Temp. mínimas Temp. medias Precipitaciones Rachas de viento máximas Velocidades máximas media en intervalos de 10 minutos

Datos horarios

Fecha y hora oficial Temperatura (ºC) Velocidad del viento (km/h) Dirección del viento Racha (km/h) Dirección de racha Precipitación (mm) Presión (hPa) Tendencia (hPa) Humedad (%)
2017-08-17 23:00:00 24.6 10 Nordeste 23 Nordeste 0 -- -- 28
2017-08-17 22:00:00 25.1 14 Nordeste 33 Nordeste 0 -- -- 25
2017-08-17 21:00:00 25.4 13 Nordeste 24 Nordeste 0 -- -- 28
2017-08-17 20:00:00 26 9 Nordeste 28 Este 0 -- -- 38
2017-08-17 19:00:00 27.9 14 Este 27 Nordeste 0 -- -- 32
2017-08-17 18:00:00 29.7 13 Nordeste 33 Este 0 -- -- 35
2017-08-17 17:00:00 31 17 Nordeste 36 Este 0 -- -- 34
2017-08-17 16:00:00 33 22 Nordeste 37 Este 0 -- -- 31
2017-08-17 15:00:00 33.2 26 Nordeste 42 Nordeste 0 -- -- 29
2017-08-17 14:00:00 33.1 28 Nordeste 47 Nordeste 0 -- -- 27
2017-08-17 13:00:00 32.8 25 Nordeste 42 Nordeste 0 -- -- 25
2017-08-17 12:00:00 32 26 Nordeste 44 Nordeste 0 -- -- 26
2017-08-17 11:00:00 30.7 24 Nordeste 46 Nordeste 0 -- -- 30
2017-08-17 10:00:00 29.9 23 Nordeste 44 Nordeste 0 -- -- 28
2017-08-17 09:00:00 27.6 21 Nordeste 34 Nordeste 0 -- -- 29
2017-08-17 08:00:00 26.1 18 Nordeste 36 Nordeste 0 -- -- 29
2017-08-17 07:00:00 26 20 Nordeste 44 Nordeste 0 -- -- 30
2017-08-17 06:00:00 25.8 24 Nordeste 41 Nordeste 0 -- -- 31
2017-08-17 05:00:00 24 15 Nordeste 36 Nordeste 0 -- -- 50
2017-08-17 04:00:00 24.4 21 Nordeste 36 Nordeste 0 -- -- 52
2017-08-17 03:00:00 22.1 10 Norte 25 Norte 0 -- -- 69
2017-08-17 02:00:00 19 5 Norte 18 Nordeste 0 -- -- 94
2017-08-17 01:00:00 19.6 13 Nordeste 19 Nordeste 0 -- -- 94
2017-08-17 00:00:00 19.9 12 Nordeste 30 Nordeste 0 -- -- 93
2017-08-16 23:00:00 20.3 18 Nordeste 24 Nordeste 0 -- -- 93
2017-08-16 22:00:00 20.1 11 Nordeste 18 Nordeste 0 -- -- 91
2017-08-16 21:00:00 20.7 12 Nordeste 24 Nordeste 0 -- -- 86
2017-08-16 20:00:00 22.6 15 Nordeste 24 Nordeste 0 -- -- 73
2017-08-16 19:00:00 24.5 15 Nordeste 30 Este 0 -- -- 69
2017-08-16 18:00:00 24.9 20 Este 29 Nordeste 0 -- -- 72
2017-08-16 17:00:00 25.5 21 Nordeste 30 Este 0 -- -- 69
2017-08-16 16:00:00 27 18 Este 30 Este 0 -- -- 64
2017-08-16 15:00:00 27 21 Este 32 Este 0 -- -- 63
2017-08-16 14:00:00 26.4 20 Nordeste 32 Nordeste 0 -- -- 65
2017-08-16 13:00:00 27.5 16 Nordeste 31 Este 0 -- -- 61
2017-08-16 12:00:00 26.5 15 Nordeste 24 Este 0 -- -- 65
2017-08-16 11:00:00 25 15 Este 27 Este 0 -- -- 70
2017-08-16 10:00:00 22.2 22 Nordeste 38 Nordeste 0 -- -- 78
2017-08-16 09:00:00 20.8 10 Nordeste 31 Nordeste 0 -- -- 85
2017-08-16 08:00:00 17.8 5 Norte 14 Nordeste 0 -- -- 93
2017-08-16 07:00:00 17.5 5 Norte 20 Nordeste 0 -- -- 93
2017-08-16 06:00:00 17.4 8 Nordeste 17 Norte 0 -- -- 94
2017-08-16 05:00:00 17.4 8 Norte 13 Nordeste 0 -- -- 95
2017-08-16 04:00:00 17.5 6 Nordeste 12 Nordeste 0 -- -- 93
2017-08-16 03:00:00 17.7 5 Norte 15 Nordeste 0 -- -- 93
2017-08-16 02:00:00 17.9 6 Norte 16 Este 0 -- -- 93
2017-08-16 01:00:00 18.3 7 Nordeste 17 Nordeste 0 -- -- 92
2017-08-16 00:00:00 19 7 Nordeste 22 Nordeste 0 -- -- 90
2017-08-15 23:00:00 19.6 17 Nordeste 24 Nordeste 0 -- -- 89
2017-08-15 22:00:00 20 14 Nordeste 23 Nordeste 0 -- -- 89
2017-08-15 21:00:00 20.3 18 Nordeste 27 Este 0 -- -- 87
2017-08-15 20:00:00 20.9 17 Nordeste 29 Este 0 -- -- 84
2017-08-15 19:00:00 22.5 21 Nordeste 29 Nordeste 0 -- -- 77
2017-08-15 18:00:00 23.8 18 Nordeste 33 Nordeste 0 -- -- 71
2017-08-15 17:00:00 24.8 18 Este 28 Este 0 -- -- 68
2017-08-15 16:00:00 25.4 17 Nordeste 30 Este 0 -- -- 66
2017-08-15 15:00:00 25.7 18 Este 28 Este 0 -- -- 65
2017-08-15 14:00:00 25.6 17 Este 28 Nordeste 0 -- -- 64
2017-08-15 13:00:00 25 18 Este 30 Nordeste 0 -- -- 66
2017-08-15 12:00:00 24.9 16 Este 24 Este 0 -- -- 66
2017-08-15 11:00:00 23.8 14 Este 21 Este 0 -- -- 70
2017-08-15 10:00:00 22.5 9 Este 16 Este 0 -- -- 74
2017-08-15 09:00:00 20.8 7 Este 12 Este 0 -- -- 81
2017-08-15 08:00:00 17.9 6 Norte 13 Noroeste 0 -- -- 85
2017-08-15 07:00:00 17.4 7 Noroeste 10 Noroeste 0 -- -- 86
2017-08-15 06:00:00 17.9 0 Calma 10 Noroeste 0 -- -- 87
2017-08-15 05:00:00 18.1 5 Noroeste 11 Noroeste 0 -- -- 83
2017-08-15 04:00:00 18.3 9 Noroeste 14 Noroeste 0 -- -- 82
2017-08-15 03:00:00 18.8 5 Noroeste 8 Noroeste 0 -- -- 86
2017-08-15 02:00:00 19.2 4 Noroeste 10 Noroeste 0 -- -- 84
2017-08-15 01:00:00 20 2 Sur 13 Este 0 -- -- 89
2017-08-15 00:00:00 19.8 6 Nordeste 10 Nordeste 0 -- -- 91
2017-08-14 23:00:00 20.2 5 Este 12 Este 0 -- -- 88
2017-08-14 22:00:00 20.6 7 Sudeste 13 Este 0 -- -- 85
2017-08-14 21:00:00 21 6 Este 12 Este 0 -- -- 83
2017-08-14 20:00:00 22.4 8 Sudeste 17 Sudeste 0 -- -- 78
2017-08-14 19:00:00 24.2 6 Sudeste 20 Sur 0 -- -- 71
2017-08-14 18:00:00 24.9 12 Sudeste 21 Sur 0 -- -- 67
2017-08-14 17:00:00 26.5 10 Sudeste 23 Este 0 -- -- 63
2017-08-14 16:00:00 27.3 10 Sudeste 26 Sudoeste 0 -- -- 60
2017-08-14 15:00:00 26.4 14 Sur 33 Sur 0 -- -- 63
2017-08-14 14:00:00 26.5 15 Sur 26 Sur 0 -- -- 62
2017-08-14 13:00:00 25.9 13 Sur 23 Sur 0 -- -- 66
2017-08-14 12:00:00 24.6 17 Sur 26 Sur 0 -- -- 69
2017-08-14 11:00:00 23.4 13 Sur 21 Sur 0 -- -- 72
2017-08-14 10:00:00 22.2 7 Sur 16 Sur 0 -- -- 76
2017-08-14 09:00:00 20.9 2 Nordeste 8 Nordeste 0 -- -- 78
2017-08-14 08:00:00 18.9 3 Norte 8 Noroeste 0 -- -- 63
2017-08-14 07:00:00 18.6 8 Noroeste 12 Noroeste 0 -- -- 62
2017-08-14 06:00:00 18.4 4 Noroeste 9 Norte 0 -- -- 79
2017-08-14 05:00:00 18.2 8 Norte 13 Norte 0 -- -- 71
2017-08-14 04:00:00 18.1 5 Sudoeste 8 Oeste 0 -- -- 82
2017-08-14 03:00:00 19.2 2 Norte 9 Norte 0 -- -- 77
2017-08-14 02:00:00 19.7 4 Norte 6 Norte 0 -- -- 78
2017-08-14 01:00:00 19.9 0 Calma 5 Oeste 0 -- -- 84
2017-08-14 00:00:00 20.4 3 Oeste 6 Noroeste 0 -- -- 84
2017-08-13 23:00:00 21 3 Sudoeste 5 Este 0 -- -- 78
2017-08-13 22:00:00 21.7 4 Norte 10 Sudoeste 0 -- -- 75
2017-08-13 21:00:00 22.5 8 Sur 19 Sudoeste 0 -- -- 74
2017-08-13 20:00:00 23.5 18 Sudoeste 32 Sudoeste 0 -- -- 71
2017-08-13 19:00:00 25.2 21 Sudoeste 30 Sudoeste 0 -- -- 66
2017-08-13 18:00:00 27.3 13 Sur 21 Sudoeste 0 -- -- 58
2017-08-13 17:00:00 27.8 10 Sudeste 18 Este 0 -- -- 57
2017-08-13 16:00:00 27.2 10 Sudeste 21 Sudeste 0 -- -- 59
2017-08-13 15:00:00 27.6 9 Este 20 Sudeste 0 -- -- 57
2017-08-13 14:00:00 28.3 10 Este 22 Sudeste 0 -- -- 52
2017-08-13 13:00:00 28.5 13 Sudeste 23 Sudeste 0 -- -- 49
2017-08-13 12:00:00 27 13 Sur 24 Sudoeste 0 -- -- 55
2017-08-13 11:00:00 25.4 15 Sudoeste 26 Sudoeste 0 -- -- 54
2017-08-13 10:00:00 24 18 Sudoeste 24 Sudoeste 0 -- -- 46
2017-08-13 09:00:00 22 10 Sudoeste 19 Sudoeste 0 -- -- 43
2017-08-13 08:00:00 19.7 13 Sudoeste 18 Oeste 0 -- -- 38
2017-08-13 07:00:00 19.3 5 Oeste 10 Noroeste 0 -- -- 48
2017-08-13 06:00:00 20 7 Noroeste 11 Noroeste 0 -- -- 39
2017-08-13 05:00:00 20.4 10 Noroeste 13 Noroeste 0 -- -- 38
2017-08-13 04:00:00 20.9 6 Norte 11 Nordeste 0 -- -- 37
2017-08-13 03:00:00 21.6 5 Norte 13 Noroeste 0 -- -- 39
2017-08-13 02:00:00 21.6 8 Noroeste 13 Nordeste 0 -- -- 45
2017-08-13 01:00:00 23.1 9 Nordeste 24 Norte 0 -- -- 37
2017-08-13 00:00:00 23.3 13 Nordeste 24 Nordeste 0 -- -- 39
2017-08-12 23:00:00 22.4 10 Nordeste 19 Nordeste 0 -- -- 45
2017-08-12 22:00:00 21.9 6 Norte 11 Norte 0 -- -- 59
2017-08-12 21:00:00 23.5 6 Nordeste 20 Norte 0 -- -- 55
2017-08-12 20:00:00 24.3 10 Nordeste 22 Nordeste 0 -- -- 62
2017-08-12 19:00:00 25.5 15 Nordeste 27 Nordeste 0 -- -- 61
2017-08-12 18:00:00 26.4 17 Nordeste 28 Este 0 -- -- 59
2017-08-12 17:00:00 25.9 17 Este 36 Este 0 -- -- 67
2017-08-12 16:00:00 25.1 23 Nordeste 41 Nordeste 0 -- -- 69
2017-08-12 15:00:00 25.7 21 Nordeste 34 Este 0 -- -- 68
2017-08-12 14:00:00 25.5 22 Nordeste 42 Nordeste 0 -- -- 68
2017-08-12 13:00:00 24 23 Nordeste 44 Nordeste 0 -- -- 73
2017-08-12 12:00:00 24.7 20 Este 36 Nordeste 0 -- -- 71
2017-08-12 11:00:00 24.1 18 Nordeste 25 Este 0 -- -- 74
2017-08-12 10:00:00 22 14 Este 19 Este 0 -- -- 83
2017-08-12 09:00:00 20.3 9 Nordeste 17 Nordeste 0 -- -- 89
2017-08-12 08:00:00 19.1 6 Nordeste 20 Norte 0 -- -- 87
2017-08-12 07:00:00 20.6 3 Este 19 Norte 0 -- -- 77
2017-08-12 06:00:00 22.1 10 Norte 24 Norte 0 -- -- 49
2017-08-12 05:00:00 21.9 6 Nordeste 23 Nordeste 0 -- -- 61
2017-08-12 04:00:00 21.5 9 Norte 21 Norte 0 -- -- 49
2017-08-12 03:00:00 21.2 14 Norte 25 Nordeste 0 -- -- 53
2017-08-12 02:00:00 21.3 10 Norte 31 Nordeste 0 -- -- 56
2017-08-12 01:00:00 22.3 21 Nordeste 36 Nordeste 0 -- -- 54
2017-08-12 00:00:00 22.7 19 Nordeste 36 Norte 0 -- -- 47
2017-08-11 23:00:00 22.5 15 Nordeste 40 Nordeste 0 -- -- 48
2017-08-11 22:00:00 21.1 14 Norte 22 Nordeste 0 -- -- 51
2017-08-11 21:00:00 21 14 Nordeste 24 Nordeste 0 -- -- 69
2017-08-11 20:00:00 22.6 18 Nordeste 34 Nordeste 0 -- -- 58
2017-08-11 19:00:00 23.9 19 Nordeste 31 Este 0 -- -- 51
2017-08-11 18:00:00 24.6 20 Nordeste 37 Nordeste 0 -- -- 60
2017-08-11 17:00:00 25.3 27 Nordeste 42 Este 0 -- -- 55
2017-08-11 16:00:00 26.6 22 Nordeste 44 Este 0 -- -- 44
2017-08-11 15:00:00 26.9 31 Nordeste 45 Nordeste 0 -- -- 39
2017-08-11 14:00:00 26.7 32 Nordeste 48 Este 0 -- -- 34
2017-08-11 13:00:00 26.7 26 Nordeste 52 Nordeste 0 -- -- 33
2017-08-11 12:00:00 25.9 27 Nordeste 46 Nordeste 0 -- -- 39
2017-08-11 11:00:00 24.7 24 Nordeste 41 Nordeste 0 -- -- 50
2017-08-11 10:00:00 23.1 21 Nordeste 36 Nordeste 0 -- -- 59
2017-08-11 09:00:00 21.1 16 Nordeste 27 Nordeste 0 -- -- 75
2017-08-11 08:00:00 19.1 9 Nordeste 26 Nordeste 0 -- -- 77
2017-08-11 07:00:00 18.7 11 Nordeste 19 Nordeste 0 -- -- 71
2017-08-11 06:00:00 18.4 7 Nordeste 21 Nordeste 0 -- -- 75
2017-08-11 05:00:00 18.4 9 Nordeste 22 Nordeste 0 -- -- 81
2017-08-11 04:00:00 18.3 13 Nordeste 23 Nordeste 0 -- -- 83
2017-08-11 03:00:00 18.4 4 Norte 19 Nordeste 0 -- -- 85
2017-08-11 02:00:00 18.4 6 Nordeste 16 Nordeste 0 -- -- 85
2017-08-11 01:00:00 19 10 Nordeste 19 Nordeste 0 -- -- 83
2017-08-11 00:00:00 19.2 6 Nordeste 13 Nordeste 0 -- -- 79
2017-08-10 23:00:00 19.8 7 Nordeste 19 Nordeste 0 -- -- 80
2017-08-10 22:00:00 20.6 4 Nordeste 18 Nordeste 0 -- -- 75
2017-08-10 21:00:00 22.4 12 Nordeste 30 Nordeste 0 -- -- 63
2017-08-10 20:00:00 23.1 20 Nordeste 33 Nordeste 0 -- -- 64
2017-08-10 19:00:00 24.5 17 Nordeste 31 Nordeste 0 -- -- 63
2017-08-10 18:00:00 26.2 16 Nordeste 35 Nordeste 0 -- -- 59
2017-08-10 17:00:00 26.1 21 Este 36 Nordeste 0 -- -- 64
2017-08-10 16:00:00 26.2 23 Nordeste 38 Nordeste 0 -- -- 64
2017-08-10 15:00:00 26.4 21 Este 40 Nordeste 0 -- -- 65
2017-08-10 14:00:00 25.6 24 Nordeste 39 Este 0 -- -- 68
2017-08-10 13:00:00 25.6 20 Nordeste 36 Nordeste 0 -- -- 68
2017-08-10 12:00:00 25 19 Nordeste 40 Este 0 -- -- 71
2017-08-10 11:00:00 23.9 18 Nordeste 31 Nordeste 0 -- -- 74
2017-08-10 10:00:00 22.4 16 Nordeste 29 Nordeste 0 -- -- 80
2017-08-10 09:00:00 20.4 14 Nordeste 23 Nordeste 0 -- -- 88
2017-08-10 08:00:00 19.1 12 Nordeste 22 Nordeste 0 -- -- 92
2017-08-10 07:00:00 19.1 13 Nordeste 24 Nordeste 0 -- -- 91
2017-08-10 06:00:00 19.1 9 Nordeste 19 Nordeste 0 -- -- 89
2017-08-10 05:00:00 19.3 9 Nordeste 23 Este 0 -- -- 87
2017-08-10 04:00:00 19.7 13 Nordeste 24 Nordeste 0 -- -- 84
2017-08-10 03:00:00 20.1 10 Nordeste 23 Nordeste 0 -- -- 81
2017-08-10 02:00:00 20.6 5 Nordeste 17 Nordeste 0 -- -- 74
2017-08-10 01:00:00 21.4 8 Nordeste 16 Nordeste 0 -- -- 67
2017-08-10 00:00:00 22.3 9 Nordeste 29 Nordeste 0 -- -- 56
2017-08-09 23:00:00 22.4 17 Nordeste 30 Nordeste 0 -- -- 54
2017-08-09 22:00:00 22.5 18 Nordeste 36 Nordeste 0 -- -- 54
2017-08-09 21:00:00 23.1 19 Nordeste 37 Nordeste 0 -- -- 54
2017-08-09 20:00:00 24.4 21 Nordeste 34 Nordeste 0 -- -- 50
2017-08-09 19:00:00 25.6 21 Nordeste 37 Este 0 -- -- 54
2017-08-09 18:00:00 27.3 21 Nordeste 36 Este 0 -- -- 52
2017-08-09 17:00:00 27.8 24 Nordeste 38 Este 0 -- -- 52
2017-08-09 16:00:00 28.4 24 Este 36 Nordeste 0 -- -- 53
2017-08-09 15:00:00 28.5 23 Este 31 Este 0 -- -- 56
2017-08-09 14:00:00 29.2 19 Nordeste 28 Este 0 -- -- 55
2017-08-09 13:00:00 29.3 18 Nordeste 28 Este 0 -- -- 52
2017-08-09 12:00:00 28.3 15 Nordeste 28 Nordeste 0 -- -- 53
2017-08-09 11:00:00 27.3 18 Nordeste 25 Este 0 -- -- 51
2017-08-09 10:00:00 25.4 15 Nordeste 21 Nordeste 0 -- -- 58
2017-08-09 09:00:00 22.8 6 Nordeste 9 Nordeste 0 -- -- 67
2017-08-09 08:00:00 21.7 6 Nordeste 12 Nordeste 0 -- -- 66
2017-08-09 07:00:00 21.3 5 Nordeste 16 Nordeste 0 -- -- 67
2017-08-09 06:00:00 22.3 7 Nordeste 26 Nordeste 0 -- -- 66
2017-08-09 05:00:00 21.4 17 Nordeste 28 Este 0 -- -- 68
2017-08-09 04:00:00 21.9 7 Nordeste 22 Nordeste 0 -- -- 63
2017-08-09 03:00:00 21.3 10 Nordeste 24 Norte 0 -- -- 75
2017-08-09 02:00:00 20.4 9 Norte 23 Nordeste 0 -- -- 91
2017-08-09 01:00:00 20.3 12 Nordeste 19 Nordeste 0 -- -- 93
2017-08-09 00:00:00 20.6 10 Nordeste 14 Nordeste 0 -- -- 93
2017-08-08 23:00:00 20.7 6 Nordeste 12 Nordeste 0 -- -- 92
2017-08-08 22:00:00 21.1 8 Este 11 Este 0 -- -- 91
2017-08-08 21:00:00 21.6 5 Nordeste 19 Este 0 -- -- 88
2017-08-08 20:00:00 22.8 11 Nordeste 21 Este 0 -- -- 82
2017-08-08 19:00:00 24 14 Nordeste 27 Este 0 -- -- 77
2017-08-08 18:00:00 25.9 14 Este 26 Nordeste 0 -- -- 70
2017-08-08 17:00:00 26.8 18 Nordeste 27 Este 0 -- -- 67
2017-08-08 16:00:00 27.4 18 Nordeste 28 Este 0 -- -- 65
2017-08-08 15:00:00 27.7 17 Nordeste 29 Este 0 -- -- 64
2017-08-08 14:00:00 27.8 18 Nordeste 28 Este 0 -- -- 63
2017-08-08 13:00:00 28 20 Nordeste 28 Nordeste 0 -- -- 64
2017-08-08 12:00:00 26.7 14 Nordeste 26 Nordeste 0 -- -- 70
2017-08-08 11:00:00 25.9 14 Nordeste 22 Este 0 -- -- 72
2017-08-08 10:00:00 23.4 5 Sur 11 Sur 0 -- -- 81
2017-08-08 09:00:00 22.1 5 Nordeste 12 Norte 0 -- -- 92
2017-08-08 08:00:00 20.9 3 Este 6 Este 0 -- -- 94
2017-08-08 07:00:00 22 8 Norte 14 Noroeste 0 -- -- 84
2017-08-08 06:00:00 22.2 5 Sudeste 9 Sudeste 0 -- -- 85
2017-08-08 05:00:00 25.3 7 Norte 13 Norte 0 -- -- 60
2017-08-08 04:00:00 21.5 5 Nordeste 9 Nordeste 0 -- -- 93
2017-08-08 03:00:00 22.3 6 Sur 13 Noroeste 0 -- -- 87
2017-08-08 02:00:00 23.1 4 Sudeste 7 Sudeste 0 -- -- 83
2017-08-08 01:00:00 25.1 3 Nordeste 10 Este 0 -- -- 74
2017-08-08 00:00:00 28.2 5 Nordeste 8 Nordeste 0 -- -- 51
2017-08-07 23:00:00 29.5 7 Noroeste 12 Oeste 0 -- -- 41
2017-08-07 22:00:00 28.2 6 Noroeste 11 Oeste 0 -- -- 52
2017-08-07 21:00:00 27.9 3 Sudoeste 7 Sudeste 0 -- -- 60
2017-08-07 20:00:00 29.2 3 Sudeste 6 Este 0 -- -- 61
2017-08-07 19:00:00 28.9 4 Sudoeste 10 Este 0 -- -- 61
2017-08-07 18:00:00 29.9 5 Sudeste 14 Sudeste 0 -- -- 59
2017-08-07 17:00:00 29.7 8 Sudeste 15 Sudeste 0 -- -- 58
2017-08-07 16:00:00 29.3 6 Este 17 Este 0 -- -- 60
2017-08-07 15:00:00 30.5 8 Sudeste 17 Sudeste 0 -- -- 59
2017-08-07 14:00:00 29.8 8 Sudeste 16 Sudeste 0 -- -- 62
2017-08-07 13:00:00 31.7 9 Este 15 Este 0 -- -- 55
2017-08-07 12:00:00 30.5 5 Nordeste 14 Sudeste 0 -- -- 57
2017-08-07 11:00:00 30.3 4 Nordeste 13 Nordeste 0 -- -- 50
2017-08-07 10:00:00 29 6 Nordeste 8 Nordeste 0 -- -- 43
2017-08-07 09:00:00 27.2 2 Norte 13 Nordeste 0 -- -- 48
2017-08-07 08:00:00 27.4 4 Norte 12 Noroeste 0 -- -- 34
2017-08-07 07:00:00 24.2 9 Noroeste 19 Sudeste 0 -- -- 55
2017-08-07 06:00:00 25.6 8 Norte 22 Noroeste 0 -- -- 41
2017-08-07 05:00:00 25.8 9 Norte 23 Noroeste 0 -- -- 44
2017-08-07 04:00:00 20.7 9 Nordeste 18 Nordeste 0 -- -- 93
2017-08-07 03:00:00 20.7 12 Sudoeste 19 Sudoeste 0 -- -- 94
2017-08-07 02:00:00 21 12 Sur 22 Sudoeste 0 -- -- 93
2017-08-07 01:00:00 20.8 4 Sudoeste 13 Sudoeste 0 -- -- 91
2017-08-07 00:00:00 20.8 8 Sur 14 Sudoeste 0 -- -- 92
2017-08-06 23:00:00 21.5 6 Sudeste 11 Este 0 -- -- 86
2017-08-06 22:00:00 22.6 3 Norte 9 Noroeste 0 -- -- 79
2017-08-06 21:00:00 22.3 3 Sudeste 9 Sudeste 0 -- -- 86
2017-08-06 20:00:00 23.7 5 Sur 14 Sudeste 0 -- -- 81
2017-08-06 19:00:00 25.3 6 Sudeste 17 Nordeste 0 -- -- 75
2017-08-06 18:00:00 25.8 9 Sudeste 18 Este 0 -- -- 72
2017-08-06 17:00:00 26.7 12 Este 24 Este 0 -- -- 69
2017-08-06 16:00:00 27.5 13 Este 24 Este 0 -- -- 65
2017-08-06 15:00:00 26.4 18 Nordeste 32 Nordeste 0 -- -- 69
2017-08-06 14:00:00 26.5 20 Este 29 Este 0 -- -- 67
2017-08-06 13:00:00 27.2 9 Este 20 Este 0 -- -- 65
2017-08-06 12:00:00 26.7 8 Sudeste 18 Sudeste 0 -- -- 65
2017-08-06 11:00:00 26.9 8 Este 20 Sudoeste 0 -- -- 64
2017-08-06 10:00:00 23 14 Sudoeste 23 Sur 0 -- -- 78
2017-08-06 09:00:00 20.5 14 Sudoeste 23 Sudoeste 0 -- -- 88
2017-08-06 08:00:00 18.3 5 Sudoeste 13 Sudoeste 0 -- -- 91
2017-08-06 07:00:00 18.4 11 Sudoeste 15 Sudoeste 0 -- -- 91
2017-08-06 06:00:00 18.6 4 Norte 10 Sudoeste 0 -- -- 89
2017-08-06 05:00:00 19.5 2 Nordeste 8 Norte 0 -- -- 90
2017-08-06 04:00:00 19.6 2 Este 8 Nordeste 0 -- -- 90
2017-08-06 03:00:00 19.9 8 Nordeste 19 Nordeste 0 -- -- 91
2017-08-06 02:00:00 20.2 7 Sudoeste 12 Sudoeste 0 -- -- 91
2017-08-06 01:00:00 20.1 3 Sur 13 Sudoeste 0 -- -- 90
2017-08-06 00:00:00 20.5 5 Sudoeste 13 Sudoeste 0 -- -- 90
2017-08-05 23:00:00 21.3 9 Sur 13 Sudoeste 0 -- -- 86
2017-08-05 22:00:00 21.7 4 Sudeste 9 Sudeste 0 -- -- 86
2017-08-05 21:00:00 21.9 6 Este 12 Este 0 -- -- 85
2017-08-05 20:00:00 22.4 5 Este 22 Este 0 -- -- 84
2017-08-05 19:00:00 23.8 14 Este 24 Nordeste 0 -- -- 77
2017-08-05 18:00:00 25.8 12 Este 22 Este 0 -- -- 66
2017-08-05 17:00:00 26.3 12 Este 27 Nordeste 0 -- -- 64
2017-08-05 16:00:00 26.3 13 Nordeste 28 Nordeste 0 -- -- 65
2017-08-05 15:00:00 26.2 15 Este 27 Nordeste 0 -- -- 64
2017-08-05 14:00:00 25.9 17 Nordeste 27 Este 0 -- -- 66
2017-08-05 13:00:00 26.7 15 Este 21 Este 0 -- -- 63
2017-08-05 12:00:00 26.5 13 Este 21 Este 0 -- -- 63
2017-08-05 11:00:00 25.2 9 Este 19 Este 0 -- -- 64
2017-08-05 10:00:00 23.7 10 Nordeste 16 Este 0 -- -- 68
2017-08-05 09:00:00 22 4 Este 13 Nordeste 0 -- -- 74
2017-08-05 08:00:00 18.9 9 Norte 23 Nordeste 0 -- -- 82
2017-08-05 07:00:00 18.5 14 Oeste 21 Oeste 0 -- -- 87
2017-08-05 06:00:00 18.5 7 Oeste 10 Sudoeste 0 -- -- 87
2017-08-05 05:00:00 18.4 7 Sudoeste 13 Oeste 0 -- -- 83
2017-08-05 04:00:00 18.8 4 Noroeste 12 Norte 0 -- -- 79
2017-08-05 03:00:00 18.6 7 Norte 20 Oeste 0 -- -- 71
2017-08-05 02:00:00 19.3 13 Sudoeste 22 Sudoeste 0 -- -- 87
2017-08-05 01:00:00 19.4 9 Sudoeste 13 Sudoeste 0 -- -- 87
2017-08-05 00:00:00 19.6 3 Sudoeste 18 Oeste 0 -- -- 84
2017-08-04 23:00:00 20.1 9 Sudoeste 14 Sudoeste 0 -- -- 84
2017-08-04 22:00:00 20.3 5 Sudoeste 6 Sudoeste 0 -- -- 84
2017-08-04 21:00:00 21 4 Este 14 Este 0 -- -- 81
2017-08-04 20:00:00 22.6 8 Este 14 Este 0 -- -- 74
2017-08-04 19:00:00 24.6 7 Este 21 Este 0 -- -- 68
2017-08-04 18:00:00 25 14 Nordeste 24 Este 0 -- -- 67
2017-08-04 17:00:00 26 14 Este 25 Este 0 -- -- 63
2017-08-04 16:00:00 26.4 14 Este 26 Nordeste 0 -- -- 60
2017-08-04 15:00:00 26.4 13 Nordeste 25 Este 0 -- -- 62
2017-08-04 14:00:00 26.4 15 Este 28 Este 0 -- -- 61
2017-08-04 13:00:00 26.3 13 Nordeste 27 Este 0 -- -- 62
2017-08-04 12:00:00 25.4 9 Este 24 Sur 0 -- -- 63
2017-08-04 11:00:00 23.9 13 Sur 21 Sudeste 0 -- -- 65
2017-08-04 10:00:00 22.6 10 Sur 15 Sur 0 -- -- 67
2017-08-04 09:00:00 20.4 13 Sudoeste 21 Sudoeste 0 -- -- 73
2017-08-04 08:00:00 17.9 14 Oeste 18 Oeste 0 -- -- 80
2017-08-04 07:00:00 17.7 10 Oeste 20 Oeste 0 -- -- 81
2017-08-04 06:00:00 17.7 15 Oeste 26 Oeste 0 -- -- 83
2017-08-04 05:00:00 18 4 Noroeste 10 Nordeste 0 -- -- 84
2017-08-04 04:00:00 17.5 7 Noroeste 16 Oeste 0 -- -- 82
2017-08-04 03:00:00 18.1 7 Noroeste 16 Norte 0 -- -- 85
2017-08-04 02:00:00 18.3 7 Norte 19 Nordeste 0 -- -- 84
2017-08-04 01:00:00 18.8 13 Nordeste 28 Nordeste 0 -- -- 83
2017-08-04 00:00:00 19.5 20 Nordeste 32 Nordeste 0 -- -- 88
2017-08-03 23:00:00 19.4 19 Nordeste 37 Nordeste 0 -- -- 85
2017-08-03 22:00:00 19.5 15 Nordeste 33 Nordeste 0 -- -- 86
2017-08-03 21:00:00 20 15 Nordeste 35 Nordeste 0 -- -- 84
2017-08-03 20:00:00 21.1 19 Nordeste 41 Norte 0 -- -- 76
2017-08-03 19:00:00 22.5 21 Nordeste 39 Nordeste 0 -- -- 70
2017-08-03 18:00:00 23 26 Nordeste 41 Este 0 -- -- 67
2017-08-03 17:00:00 23.8 24 Nordeste 43 Este 0 -- -- 66
2017-08-03 16:00:00 23.5 28 Nordeste 44 Este 0 -- -- 68
2017-08-03 15:00:00 23.9 30 Nordeste 44 Nordeste 0 -- -- 63
2017-08-03 14:00:00 23.9 27 Nordeste 46 Este 0 -- -- 61
2017-08-03 13:00:00 23.2 30 Nordeste 43 Este 0 -- -- 66
2017-08-03 12:00:00 23.3 29 Nordeste 42 Este 0 -- -- 62
2017-08-03 11:00:00 23 21 Nordeste 41 Este 0 -- -- 62
2017-08-03 10:00:00 22.5 10 Este 17 Sudeste 0 -- -- 66
2017-08-03 09:00:00 20.3 9 Sudeste 24 Sudoeste 0 -- -- 76
2017-08-03 08:00:00 17.9 16 Oeste 21 Oeste 0 -- -- 83
2017-08-03 07:00:00 17.2 11 Oeste 14 Oeste 0 -- -- 83
2017-08-03 06:00:00 17.3 8 Noroeste 13 Nordeste 0 -- -- 83
2017-08-03 05:00:00 17.6 5 Norte 12 Nordeste 0 -- -- 80
2017-08-03 04:00:00 18 7 Norte 18 Norte 0 -- -- 79
2017-08-03 03:00:00 18.2 8 Norte 22 Nordeste 0 -- -- 80
2017-08-03 02:00:00 18 8 Norte 18 Nordeste 0 -- -- 85
2017-08-03 01:00:00 18.6 13 Nordeste 25 Nordeste 0 -- -- 89
2017-08-03 00:00:00 19 14 Nordeste 28 Nordeste 0 -- -- 89
2017-08-02 23:00:00 19.2 12 Nordeste 27 Nordeste 0 -- -- 86
2017-08-02 22:00:00 19.3 15 Nordeste 27 Nordeste 0 -- -- 87
2017-08-02 21:00:00 19.7 18 Nordeste 32 Este 0 -- -- 85
2017-08-02 20:00:00 20.6 22 Nordeste 35 Nordeste 0 -- -- 79
2017-08-02 19:00:00 21.5 22 Nordeste 36 Nordeste 0 -- -- 76
2017-08-02 18:00:00 22.9 24 Nordeste 37 Nordeste 0 -- -- 72
2017-08-02 17:00:00 23.8 24 Nordeste 40 Este 0 -- -- 68
2017-08-02 16:00:00 24 24 Nordeste 48 Nordeste 0 -- -- 68
2017-08-02 15:00:00 24.3 27 Nordeste 41 Este 0 -- -- 67
2017-08-02 14:00:00 23.9 27 Nordeste 44 Nordeste 0 -- -- 69
2017-08-02 13:00:00 23.8 29 Nordeste 43 Este 0 -- -- 68
2017-08-02 12:00:00 23.7 27 Nordeste 38 Nordeste 0 -- -- 66
2017-08-02 11:00:00 23.7 22 Nordeste 39 Nordeste 0 -- -- 67
2017-08-02 10:00:00 22.4 18 Nordeste 31 Nordeste 0 -- -- 76
2017-08-02 09:00:00 19.5 18 Nordeste 24 Nordeste 0 -- -- 90
2017-08-02 08:00:00 18 5 Noroeste 17 Nordeste 0 -- -- 88
2017-08-02 07:00:00 17.9 7 Norte 12 Norte 0 -- -- 88
2017-08-02 06:00:00 18.2 4 Noroeste 13 Nordeste 0 -- -- 87
2017-08-02 05:00:00 19.1 11 Nordeste 17 Nordeste 0 -- -- 93
2017-08-02 04:00:00 18 3 Norte 9 Noroeste 0 -- -- 88
2017-08-02 03:00:00 18.8 3 Norte 9 Nordeste 0 -- -- 90
2017-08-02 02:00:00 19.6 3 Sur 13 Nordeste 0 -- -- 93
2017-08-02 01:00:00 19.7 8 Nordeste 20 Nordeste 0 -- -- 94
2017-08-02 00:00:00 19.9 8 Este 15 Este 0 -- -- 92
2017-08-01 23:00:00 19.9 6 Este 13 Este 0 -- -- 92
2017-08-01 22:00:00 20 8 Este 16 Nordeste 0 -- -- 91
2017-08-01 21:00:00 20.2 12 Nordeste 21 Este 0 -- -- 88
2017-08-01 20:00:00 20.5 13 Nordeste 24 Nordeste 0 -- -- 87
2017-08-01 19:00:00 20.3 16 Nordeste 30 Nordeste 0 -- -- 91
2017-08-01 18:00:00 20.6 18 Nordeste 31 Nordeste 0 -- -- 91
2017-08-01 17:00:00 21.4 17 Nordeste 34 Este 0 -- -- 83
2017-08-01 16:00:00 21.9 20 Nordeste 32 Nordeste 0 -- -- 79
2017-08-01 15:00:00 23.7 21 Nordeste 36 Nordeste 0 -- -- 74
2017-08-01 14:00:00 25.7 23 Este 34 Este 0 -- -- 65
2017-08-01 13:00:00 25.9 19 Este 32 Este 0 -- -- 61
2017-08-01 12:00:00 24.1 18 Este 27 Este 0 -- -- 67
2017-08-01 11:00:00 24.1 16 Este 28 Este 0 -- -- 67
2017-08-01 10:00:00 22.9 8 Sudeste 13 Este 0 -- -- 67
2017-08-01 09:00:00 21.5 6 Este 13 Este 0 -- -- 69
2017-08-01 08:00:00 18.1 5 Noroeste 10 Oeste 0 -- -- 82
2017-08-01 07:00:00 17.5 8 Oeste 9 Oeste 0 -- -- 87
2017-08-01 06:00:00 17.8 4 Noroeste 10 Noroeste 0 -- -- 87
2017-08-01 05:00:00 17.6 6 Norte 11 Noroeste 0 -- -- 82
2017-08-01 04:00:00 17.9 5 Noroeste 17 Oeste 0 -- -- 85
2017-08-01 03:00:00 18.4 8 Sudoeste 18 Sudoeste 0 -- -- 86
2017-08-01 02:00:00 18.7 10 Sudoeste 22 Sudoeste 0 -- -- 85
2017-08-01 01:00:00 19.1 14 Sudoeste 32 Sudoeste 0 -- -- 82
2017-08-01 00:00:00 18.5 13 Oeste 18 Oeste 0 -- -- 84
2017-07-31 23:00:00 18.8 3 Norte 14 Nordeste 0 -- -- 83
2017-07-31 22:00:00 19.2 4 Norte 15 Nordeste 0 -- -- 84
2017-07-31 21:00:00 20 12 Nordeste 24 Nordeste 0 -- -- 81
2017-07-31 20:00:00 20.8 17 Nordeste 32 Nordeste 0 -- -- 78
2017-07-31 19:00:00 22.4 23 Nordeste 37 Este 0 -- -- 71
2017-07-31 18:00:00 23.1 24 Nordeste 42 Nordeste 0 -- -- 69
2017-07-31 17:00:00 24 23 Nordeste 40 Este 0 -- -- 64
2017-07-31 16:00:00 24.4 26 Nordeste 41 Este 0 -- -- 62
2017-07-31 15:00:00 25 23 Nordeste 37 Nordeste 0 -- -- 61
2017-07-31 14:00:00 25.6 17 Este 33 Este 0 -- -- 59
2017-07-31 13:00:00 25 18 Este 33 Este 0 -- -- 60
2017-07-31 12:00:00 23.8 19 Nordeste 32 Nordeste 0 -- -- 64
2017-07-31 11:00:00 23.4 15 Este 27 Este 0 -- -- 63
2017-07-31 10:00:00 22 17 Nordeste 28 Este 0 -- -- 66
2017-07-31 09:00:00 20.7 9 Este 17 Este 0 -- -- 70
2017-07-31 08:00:00 17.8 5 Oeste 17 Sudoeste 0 -- -- 82
2017-07-31 07:00:00 17.1 9 Sudoeste 17 Sudoeste 0 -- -- 83
2017-07-31 06:00:00 17.2 5 Sudoeste 13 Noroeste 0 -- -- 81
2017-07-31 05:00:00 17.4 8 Oeste 13 Noroeste 0 -- -- 81
2017-07-31 04:00:00 17.5 6 Oeste 10 Oeste 0 -- -- 82
2017-07-31 03:00:00 17.9 3 Norte 7 Norte 0 -- -- 82
2017-07-31 02:00:00 18 5 Sur 8 Sur 0 -- -- 81
2017-07-31 01:00:00 18.1 3 Noroeste 6 Norte 0 -- -- 89
2017-07-31 00:00:00 18.2 2 Norte 4 Nordeste 0 -- -- 89
2017-07-30 23:00:00 18.6 3 Nordeste 11 Nordeste 0 -- -- 87
2017-07-30 22:00:00 19 8 Nordeste 24 Nordeste 0 -- -- 88
2017-07-30 21:00:00 19.7 16 Nordeste 24 Nordeste 0 -- -- 85
2017-07-30 20:00:00 21.1 15 Nordeste 27 Nordeste 0 -- -- 78
2017-07-30 19:00:00 22.6 17 Nordeste 33 Este 0 -- -- 74
2017-07-30 18:00:00 24.4 16 Nordeste 25 Este 0 -- -- 66
2017-07-30 17:00:00 25.4 15 Este 27 Nordeste 0 -- -- 65
2017-07-30 16:00:00 26 17 Este 30 Nordeste 0 -- -- 64
2017-07-30 15:00:00 26.2 17 Nordeste 27 Este 0 -- -- 62
2017-07-30 14:00:00 26.6 16 Este 28 Este 0 -- -- 61
2017-07-30 13:00:00 25.8 18 Este 27 Nordeste 0 -- -- 64
2017-07-30 12:00:00 25.7 15 Este 23 Este 0 -- -- 64
2017-07-30 11:00:00 24.3 15 Este 22 Este 0 -- -- 70
2017-07-30 10:00:00 23.4 12 Nordeste 17 Nordeste 0 -- -- 73
2017-07-30 09:00:00 21.3 7 Nordeste 12 Este 0 -- -- 82
2017-07-30 08:00:00 19.8 2 Este 8 Nordeste 0 -- -- 83
2017-07-30 07:00:00 22 4 Norte 10 Norte 0 -- -- 67
2017-07-30 06:00:00 23.2 6 Norte 10 Norte 0 -- -- 32
2017-07-30 05:00:00 23.3 8 Norte 12 Norte 0 -- -- 33
2017-07-30 04:00:00 25.1 6 Norte 13 Noroeste 0 -- -- 22
2017-07-30 03:00:00 24 6 Norte 12 Noroeste 0 -- -- 49
2017-07-30 02:00:00 23.9 5 Norte 10 Noroeste 0 -- -- 43
2017-07-30 01:00:00 24.4 5 Norte 11 Norte 0 -- -- 48
2017-07-30 00:00:00 26.2 4 Nordeste 11 Noroeste 0 -- -- 30
2017-07-29 23:00:00 27.6 5 Norte 12 Noroeste 0 -- -- 24
2017-07-29 22:00:00 28.9 5 Noroeste 12 Noroeste 0 -- -- 17
2017-07-29 21:00:00 30 6 Norte 13 Este 0 -- -- 16
2017-07-29 20:00:00 32 8 Este 19 Nordeste 0 -- -- 17
2017-07-29 19:00:00 33.4 10 Nordeste 20 Nordeste 0 -- -- 15
2017-07-29 18:00:00 33.5 12 Nordeste 22 Este 0 -- -- 31
2017-07-29 17:00:00 33.6 11 Nordeste 21 Nordeste 0 -- -- 34
2017-07-29 16:00:00 31.8 8 Nordeste 17 Este 0 -- -- 49
2017-07-29 15:00:00 31.5 11 Nordeste 16 Este 0 -- -- 48
2017-07-29 14:00:00 32.4 9 Este 18 Este 0 -- -- 44
2017-07-29 13:00:00 33.1 10 Nordeste 18 Nordeste 0 -- -- 32
2017-07-29 12:00:00 31.7 11 Este 18 Nordeste 0 -- -- 33
2017-07-29 11:00:00 31.3 9 Nordeste 17 Nordeste 0 -- -- 22
2017-07-29 10:00:00 30.4 12 Nordeste 16 Nordeste 0 -- -- 14
2017-07-29 09:00:00 28 7 Nordeste 13 Nordeste 0 -- -- 14
2017-07-29 08:00:00 25.3 3 Norte 15 Nordeste 0 -- -- 20
2017-07-29 07:00:00 25 7 Norte 21 Nordeste 0 -- -- 21
2017-07-29 06:00:00 24.7 8 Nordeste 15 Nordeste 0 -- -- 25
2017-07-29 05:00:00 24.8 9 Norte 19 Nordeste 0 -- -- 28
2017-07-29 04:00:00 24.7 12 Nordeste 25 Nordeste 0 -- -- 31
2017-07-29 03:00:00 24.3 10 Nordeste 17 Nordeste 0 -- -- 35
2017-07-29 02:00:00 24 6 Norte 26 Nordeste 0 -- -- 35
2017-07-29 01:00:00 24.5 16 Nordeste 28 Nordeste 0 -- -- 36
2017-07-29 00:00:00 24.4 9 Nordeste 18 Norte 0 -- -- 38
2017-07-28 23:00:00 25.1 5 Norte 12 Nordeste 0 -- -- 37
2017-07-28 22:00:00 26.6 3 Norte 15 Nordeste 0 -- -- 38
2017-07-28 21:00:00 28.9 9 Nordeste 17 Nordeste 0 -- -- 32
2017-07-28 20:00:00 32.1 8 Nordeste 14 Norte 0 -- -- 23
2017-07-28 19:00:00 31.3 10 Nordeste 26 Nordeste 0 -- -- 30
2017-07-28 18:00:00 33 17 Nordeste 31 Este 0 -- -- 25
2017-07-28 17:00:00 35.4 15 Este 25 Este 0 -- -- 25
2017-07-28 16:00:00 35.1 17 Nordeste 27 Este 0 -- -- 23
2017-07-28 15:00:00 39 19 Nordeste 28 Este 0 -- -- 17
2017-07-28 14:00:00 38.3 15 Nordeste 31 Este 0 -- -- 21
2017-07-28 13:00:00 38.5 20 Nordeste 30 Este 0 -- -- 11
2017-07-28 12:00:00 34.3 18 Nordeste 41 Este 0 -- -- 20
2017-07-28 11:00:00 32.1 21 Nordeste 34 Nordeste 0 -- -- 27
2017-07-28 10:00:00 29.7 19 Nordeste 29 Nordeste 0 -- -- 28
2017-07-28 09:00:00 27.2 11 Este 32 Nordeste 0 -- -- 34
2017-07-28 08:00:00 23.9 14 Nordeste 30 Nordeste 0 -- -- 41
2017-07-28 07:00:00 23.6 9 Nordeste 23 Nordeste 0 -- -- 43
2017-07-28 06:00:00 24.7 6 Nordeste 20 Nordeste 0 -- -- 28
2017-07-28 05:00:00 22.9 5 Nordeste 14 Nordeste 0 -- -- 39
2017-07-28 04:00:00 22.8 6 Nordeste 14 Norte 0 -- -- 40
2017-07-28 03:00:00 23.8 9 Nordeste 19 Nordeste 0 -- -- 39
2017-07-28 02:00:00 23.3 7 Nordeste 14 Nordeste 0 -- -- 43
2017-07-28 01:00:00 24.3 0 Calma 13 Norte 0 -- -- 39
2017-07-28 00:00:00 25.3 8 Nordeste 19 Nordeste 0 -- -- 38
2017-07-27 23:00:00 25.3 5 Nordeste 13 Nordeste 0 -- -- 37
2017-07-27 22:00:00 25.9 6 Nordeste 16 Nordeste 0 -- -- 37
2017-07-27 21:00:00 26.1 7 Nordeste 17 Nordeste 0 -- -- 49
2017-07-27 20:00:00 26.7 5 Norte 9 Nordeste 0 -- -- 58
2017-07-27 19:00:00 30.8 6 Nordeste 17 Nordeste 0 -- -- 44
2017-07-27 18:00:00 32.9 10 Nordeste 28 Nordeste 0 -- -- 37
2017-07-27 17:00:00 34.1 15 Nordeste 27 Nordeste 0 -- -- 33
2017-07-27 16:00:00 34.4 15 Nordeste 27 Nordeste 0 -- -- 30
2017-07-27 15:00:00 34.5 19 Nordeste 34 Nordeste 0 -- -- 30
2017-07-27 14:00:00 33.3 20 Nordeste 33 Nordeste 0 -- -- 31
2017-07-27 13:00:00 32.1 18 Nordeste 27 Nordeste 0 -- -- 35
2017-07-27 12:00:00 29.2 12 Nordeste 21 Norte 0 -- -- 50
2017-07-27 11:00:00 27.8 10 Nordeste 22 Nordeste 0 -- -- 61
2017-07-27 10:00:00 24.9 11 Nordeste 18 Nordeste 0 -- -- 59
2017-07-27 09:00:00 20.4 7 Nordeste 18 Norte 0 -- -- 90
2017-07-27 08:00:00 18 8 Norte 15 Nordeste 0 -- -- 96
2017-07-27 07:00:00 18 6 Nordeste 14 Norte 0 -- -- 94
2017-07-27 06:00:00 18.2 6 Norte 12 Norte 0 -- -- 74
2017-07-27 05:00:00 17.7 6 Nordeste 10 Nordeste 0 -- -- 96
2017-07-27 04:00:00 17.9 6 Nordeste 11 Norte 0 -- -- 95
2017-07-27 03:00:00 18 5 Nordeste 11 Norte 0 -- -- 94
2017-07-27 02:00:00 18.3 7 Norte 19 Nordeste 0 -- -- 94
2017-07-27 01:00:00 18.6 11 Nordeste 16 Nordeste 0 -- -- 93
2017-07-27 00:00:00 18.9 10 Nordeste 14 Nordeste 0 -- -- 92
2017-07-26 23:00:00 19.3 8 Nordeste 12 Nordeste 0 -- -- 90
2017-07-26 22:00:00 19.8 8 Nordeste 12 Nordeste 0 -- -- 88
2017-07-26 21:00:00 20.9 9 Nordeste 15 Nordeste 0 -- -- 84
2017-07-26 20:00:00 22.7 8 Nordeste 16 Nordeste 0 -- -- 76
2017-07-26 19:00:00 24.5 9 Nordeste 18 Nordeste 0 -- -- 71
2017-07-26 18:00:00 25.1 14 Este 21 Este 0 -- -- 68
2017-07-26 17:00:00 26.9 10 Este 18 Este 0 -- -- 61
2017-07-26 16:00:00 27 13 Este 25 Nordeste 0 -- -- 61
2017-07-26 15:00:00 27.4 13 Este 27 Este 0 -- -- 60
2017-07-26 14:00:00 27.1 17 Nordeste 24 Este 0 -- -- 61
2017-07-26 13:00:00 26.8 15 Nordeste 27 Nordeste 0 -- -- 63
2017-07-26 12:00:00 25.1 17 Nordeste 25 Nordeste 0 -- -- 69
2017-07-26 11:00:00 24 16 Nordeste 22 Nordeste 0 -- -- 72
2017-07-26 10:00:00 22.2 16 Nordeste 21 Nordeste 0 -- -- 80
2017-07-26 09:00:00 20.1 8 Nordeste 15 Nordeste 0 -- -- 91
2017-07-26 08:00:00 18 8 Norte 14 Nordeste 0 -- -- 95
2017-07-26 07:00:00 17.9 8 Norte 18 Nordeste 0 -- -- 94
2017-07-26 06:00:00 18.2 12 Nordeste 19 Nordeste 0 -- -- 93
2017-07-26 05:00:00 18.2 13 Nordeste 17 Nordeste 0 -- -- 92
2017-07-26 04:00:00 18.5 10 Nordeste 21 Nordeste 0 -- -- 91
2017-07-26 03:00:00 18.6 9 Nordeste 14 Nordeste 0 -- -- 89
2017-07-26 02:00:00 19.1 11 Nordeste 15 Nordeste 0 -- -- 87
2017-07-26 01:00:00 19.6 7 Nordeste 13 Nordeste 0 -- -- 82
2017-07-26 00:00:00 19.7 8 Norte 15 Nordeste 0 -- -- 84
2017-07-25 23:00:00 20 10 Nordeste 14 Nordeste 0 -- -- 85
2017-07-25 22:00:00 20.1 5 Nordeste 12 Nordeste 0 -- -- 87
2017-07-25 21:00:00 20.6 10 Nordeste 24 Este 0 -- -- 85
2017-07-25 20:00:00 21.9 14 Nordeste 25 Este 0 -- -- 78
2017-07-25 19:00:00 23.7 13 Nordeste 27 Nordeste 0 -- -- 72
2017-07-25 18:00:00 24.6 19 Nordeste 30 Este 0 -- -- 69
2017-07-25 17:00:00 25.1 21 Nordeste 36 Este 0 -- -- 69
2017-07-25 16:00:00 25.2 24 Nordeste 40 Nordeste 0 -- -- 68
2017-07-25 15:00:00 25.1 25 Nordeste 37 Este 0 -- -- 67
2017-07-25 14:00:00 25.7 23 Nordeste 36 Nordeste 0 -- -- 64
2017-07-25 13:00:00 25.3 22 Nordeste 44 Nordeste 0 -- -- 67
2017-07-25 12:00:00 24.6 23 Este 33 Nordeste 0 -- -- 69
2017-07-25 11:00:00 24.4 15 Nordeste 28 Este -- -- -- 70
2017-07-25 10:00:00 22.3 18 Nordeste 27 Nordeste 0 -- -- 79
2017-07-25 09:00:00 20.4 13 Nordeste 17 Nordeste 0 -- -- 86
2017-07-25 08:00:00 18.2 4 Norte 10 Nordeste 0 -- -- 93
2017-07-25 07:00:00 18.2 6 Nordeste 18 Nordeste 0 -- -- 93
2017-07-25 06:00:00 18.5 13 Nordeste 22 Nordeste 0 -- -- 93
2017-07-25 05:00:00 18.4 6 Nordeste 12 Nordeste 0 -- -- 91
2017-07-25 04:00:00 18.8 3 Nordeste 18 Nordeste 0 -- -- 88
2017-07-25 03:00:00 19.1 6 Nordeste 21 Nordeste 0 -- -- 86
2017-07-25 02:00:00 19.6 11 Nordeste 19 Este 0 -- -- 84
2017-07-25 01:00:00 20.6 8 Nordeste 23 Nordeste 0 -- -- 73
2017-07-25 00:00:00 21.3 13 Nordeste 29 Nordeste 0 -- -- 68
2017-07-24 23:00:00 21.5 15 Nordeste 27 Nordeste 0 -- -- 67
2017-07-24 22:00:00 21.7 17 Nordeste 23 Nordeste 0 -- -- 68
2017-07-24 21:00:00 22.8 13 Nordeste 26 Nordeste 0 -- -- 63
2017-07-24 20:00:00 24 15 Nordeste 28 Nordeste 0 -- -- 61
2017-07-24 19:00:00 25.1 14 Nordeste 29 Este 0 -- -- 61
2017-07-24 18:00:00 26.2 19 Nordeste 31 Nordeste 0 -- -- 59
2017-07-24 17:00:00 27.2 21 Nordeste 42 Este 0 -- -- 55
2017-07-24 16:00:00 27.1 24 Este 34 Nordeste 0 -- -- 57
2017-07-24 15:00:00 26.3 22 Nordeste 36 Nordeste 0 -- -- 61
2017-07-24 14:00:00 26.2 21 Nordeste 37 Este 0 -- -- 60
2017-07-24 13:00:00 25.4 24 Nordeste 37 Este 0 -- -- 63
2017-07-24 12:00:00 24.9 23 Nordeste 46 Este 0 -- -- 64
2017-07-24 11:00:00 24.3 22 Nordeste 32 Este 0 -- -- 64
2017-07-24 10:00:00 23.7 18 Nordeste 31 Este 0 -- -- 60
2017-07-24 09:00:00 21.5 10 Nordeste 18 Este 0 -- -- 68
2017-07-24 08:00:00 18.2 8 Norte 16 Nordeste 0 -- -- 72
2017-07-24 07:00:00 17.5 7 Norte 19 Este 0 -- -- 74
2017-07-24 06:00:00 17.5 6 Noroeste 10 Norte 0 -- -- 71
2017-07-24 05:00:00 17.2 5 Norte 13 Este 0 -- -- 78
2017-07-24 04:00:00 17.2 4 Noroeste 14 Noroeste 0 -- -- 84
2017-07-24 03:00:00 18 9 Nordeste 27 Nordeste 0 -- -- 85
2017-07-24 02:00:00 18.6 13 Nordeste 33 Nordeste 0 -- -- 83
2017-07-24 01:00:00 18.8 18 Nordeste 35 Nordeste 0 -- -- 80
2017-07-24 00:00:00 19.1 18 Nordeste 39 Nordeste 0 -- -- 79
2017-07-23 23:00:00 19.2 21 Nordeste 40 Nordeste 0 -- -- 78
2017-07-23 22:00:00 19.6 17 Nordeste 37 Nordeste 0 -- -- 77
2017-07-23 21:00:00 20.1 16 Nordeste 33 Nordeste 0 -- -- 72
2017-07-23 20:00:00 21.5 23 Nordeste 37 Nordeste 0 -- -- 70
2017-07-23 19:00:00 22.6 21 Nordeste 43 Nordeste 0 -- -- 69
2017-07-23 18:00:00 23.3 27 Nordeste 48 Este 0 -- -- 66
2017-07-23 17:00:00 23.8 28 Nordeste 52 Nordeste 0 -- -- 64
2017-07-23 16:00:00 23.9 31 Nordeste 48 Este 0 -- -- 65
2017-07-23 15:00:00 24.1 31 Nordeste 49 Este 0 -- -- 61
2017-07-23 14:00:00 24.3 27 Nordeste 48 Nordeste 0 -- -- 63
2017-07-23 13:00:00 24.2 28 Nordeste 48 Este 0 -- -- 60
2017-07-23 12:00:00 22.9 30 Nordeste 49 Este 0 -- -- 65
2017-07-23 11:00:00 22.5 31 Nordeste 52 Nordeste 0 -- -- 61
2017-07-23 10:00:00 21.9 25 Nordeste 44 Nordeste 0 -- -- 65
2017-07-23 09:00:00 20.2 26 Nordeste 41 Nordeste 0 -- -- 73
2017-07-23 08:00:00 17.7 7 Nordeste 16 Nordeste 0 -- -- 72
2017-07-23 07:00:00 16.7 12 Norte 24 Nordeste 0 -- -- 73
2017-07-23 06:00:00 16.8 11 Norte 18 Nordeste 0 -- -- 77
2017-07-23 05:00:00 16.7 8 Noroeste 15 Norte 0 -- -- 72
2017-07-23 04:00:00 17.6 8 Norte 31 Nordeste 0 -- -- 73
2017-07-23 03:00:00 18.1 16 Nordeste 32 Nordeste 0 -- -- 73
2017-07-23 02:00:00 18.2 16 Nordeste 30 Nordeste 0 -- -- 75
2017-07-23 01:00:00 18.3 14 Nordeste 30 Nordeste 0 -- -- 71
2017-07-23 00:00:00 18.8 15 Nordeste 28 Nordeste 0 -- -- 75
2017-07-22 23:00:00 19.1 16 Nordeste 39 Nordeste 0 -- -- 74
2017-07-22 22:00:00 19.1 25 Nordeste 57 Norte 0 -- -- 69
2017-07-22 21:00:00 19.6 28 Nordeste 46 Nordeste 0 -- -- 68
2017-07-22 20:00:00 20.8 28 Nordeste 53 Nordeste 0 -- -- 65
2017-07-22 19:00:00 22.1 31 Nordeste 49 Nordeste 0 -- -- 68
2017-07-22 18:00:00 23 30 Nordeste 54 Nordeste 0 -- -- 59
2017-07-22 17:00:00 22.8 35 Nordeste 51 Nordeste 0 -- -- 63
2017-07-22 16:00:00 23.4 35 Nordeste 50 Nordeste 0 -- -- 61
2017-07-22 15:00:00 24.5 28 Este 49 Nordeste 0 -- -- 57
2017-07-22 14:00:00 23.4 32 Nordeste 51 Este 0 -- -- 57
2017-07-22 13:00:00 23.3 31 Nordeste 49 Nordeste 0 -- -- 59
2017-07-22 12:00:00 22.3 33 Nordeste 54 Nordeste 0 -- -- 62
2017-07-22 11:00:00 22.1 30 Nordeste 49 Nordeste 0 -- -- 71
2017-07-22 10:00:00 21.7 26 Nordeste 44 Nordeste 0 -- -- 57
2017-07-22 09:00:00 20.4 10 Nordeste 18 Este 0 -- -- 66
2017-07-22 08:00:00 17.3 8 Noroeste 16 Oeste 0 -- -- 76
2017-07-22 07:00:00 16.6 10 Oeste 13 Oeste 0 -- -- 79
2017-07-22 06:00:00 16.6 7 Noroeste 14 Oeste 0 -- -- 81
2017-07-22 05:00:00 16.9 6 Sur 12 Oeste 0 -- -- 80
2017-07-22 04:00:00 17 3 Noroeste 15 Nordeste 0 -- -- 80
2017-07-22 03:00:00 17.4 6 Norte 26 Este 0 -- -- 80
2017-07-22 02:00:00 17.7 4 Sudeste 13 Noroeste 0 -- -- 81
2017-07-22 01:00:00 17.9 6 Nordeste 22 Nordeste 0 -- -- 72
2017-07-22 00:00:00 18.7 8 Nordeste 18 Este 0 -- -- 74
2017-07-21 23:00:00 18.5 6 Este 12 Norte 0 -- -- 72
2017-07-21 22:00:00 18.3 5 Este 34 Nordeste 0 -- -- 75
2017-07-21 21:00:00 19.2 24 Nordeste 40 Nordeste 0 -- -- 69
2017-07-21 20:00:00 20.5 27 Nordeste 45 Nordeste 0 -- -- 63
2017-07-21 19:00:00 21.7 27 Nordeste 47 Este 0 -- -- 64
2017-07-21 18:00:00 22.4 29 Nordeste 49 Nordeste 0 -- -- 62
2017-07-21 17:00:00 23.1 31 Nordeste 46 Este 0 -- -- 62
2017-07-21 16:00:00 23.7 28 Nordeste 45 Nordeste 0 -- -- 59
2017-07-21 15:00:00 23.9 27 Nordeste 46 Este 0 -- -- 58
2017-07-21 14:00:00 23.4 30 Nordeste 46 Nordeste 0 -- -- 62
2017-07-21 13:00:00 23.8 26 Nordeste 44 Nordeste 0 -- -- 62
2017-07-21 12:00:00 22.9 28 Nordeste 50 Este 0 -- -- 62
2017-07-21 11:00:00 23.2 27 Nordeste 41 Nordeste 0 -- -- 60
2017-07-21 10:00:00 22.1 6 Sudeste 20 Sudeste 0 -- -- 68
2017-07-21 09:00:00 20.2 9 Sur 28 Oeste 0 -- -- 76
2017-07-21 08:00:00 18.6 13 Oeste 22 Sudoeste 0 -- -- 82
2017-07-21 07:00:00 17 7 Noroeste 24 Oeste 0 -- -- 86
2017-07-21 06:00:00 17.8 13 Sudoeste 26 Sudoeste 0 -- -- 84
2017-07-21 05:00:00 17.4 14 Sudoeste 21 Sudoeste 0 -- -- 85
2017-07-21 04:00:00 17.1 8 Oeste 15 Oeste 0 -- -- 86
2017-07-21 03:00:00 17.1 8 Oeste 15 Oeste 0 -- -- 86
2017-07-21 02:00:00 17.4 4 Nordeste 12 Este 0 -- -- 85
2017-07-21 01:00:00 17.7 2 Sudeste 12 Nordeste 0 -- -- 84
2017-07-21 00:00:00 18 0 Calma 7 Oeste 0 -- -- 82
2017-07-20 23:00:00 18.6 5 Norte 31 Nordeste 0 -- -- 82
2017-07-20 22:00:00 19.1 13 Nordeste 33 Nordeste 0 -- -- 78
2017-07-20 21:00:00 19.3 12 Nordeste 32 Nordeste 0 -- -- 82
2017-07-20 20:00:00 20 19 Nordeste 34 Este 0 -- -- 82
2017-07-20 19:00:00 21.1 21 Nordeste 37 Nordeste 0 -- -- 77
2017-07-20 18:00:00 22.3 21 Nordeste 35 Nordeste 0 -- -- 71
2017-07-20 17:00:00 22.4 22 Nordeste 46 Este 0 -- -- 73
2017-07-20 16:00:00 22.3 23 Nordeste 40 Este 0 -- -- 72
2017-07-20 15:00:00 23.5 27 Nordeste 39 Nordeste 0 -- -- 68
2017-07-20 14:00:00 22.5 22 Nordeste 36 Nordeste 0 -- -- 74
2017-07-20 13:00:00 21.3 24 Nordeste 38 Este 0 -- -- 83
2017-07-20 12:00:00 21.1 26 Nordeste 39 Este 0 -- -- 82
2017-07-20 11:00:00 19.5 24 Nordeste 37 Nordeste 0 -- -- 93
2017-07-20 10:00:00 19.6 20 Nordeste 37 Nordeste 0 -- -- 93
2017-07-20 09:00:00 19.3 19 Nordeste 29 Nordeste 0 -- -- 93
2017-07-20 08:00:00 18.9 12 Nordeste 23 Nordeste 0 -- -- 92
2017-07-20 07:00:00 17.9 12 Nordeste 24 Nordeste 0 -- -- 88
2017-07-20 06:00:00 17.5 13 Nordeste 28 Nordeste 0 -- -- 87
2017-07-20 05:00:00 17.8 17 Nordeste 24 Nordeste 0 -- -- 87
2017-07-20 04:00:00 17.5 10 Nordeste 25 Nordeste 0 -- -- 84
2017-07-20 03:00:00 17.5 11 Nordeste 18 Nordeste 0 -- -- 85
2017-07-20 02:00:00 17.5 9 Norte 21 Norte 0 -- -- 85
2017-07-20 01:00:00 17.2 8 Norte 14 Norte 0 -- -- 89
2017-07-20 00:00:00 17.7 7 Nordeste 21 Nordeste 0 -- -- 89
2017-07-19 23:00:00 18.2 13 Nordeste 21 Nordeste 0 -- -- 88
2017-07-19 22:00:00 18.6 14 Nordeste 23 Nordeste 0 -- -- 87
2017-07-19 21:00:00 19.1 19 Nordeste 29 Nordeste 0 -- -- 86
2017-07-19 20:00:00 20.6 19 Nordeste 29 Este 0 -- -- 79
2017-07-19 19:00:00 22.1 22 Nordeste 34 Este 0 -- -- 73
2017-07-19 18:00:00 22.9 21 Nordeste 35 Este 0 -- -- 71
2017-07-19 17:00:00 24.4 21 Nordeste 35 Este 0 -- -- 66
2017-07-19 16:00:00 24.8 22 Nordeste 35 Este 0 -- -- 66
2017-07-19 15:00:00 24.9 23 Nordeste 35 Nordeste 0 -- -- 64
2017-07-19 14:00:00 24.5 24 Nordeste 37 Este 0 -- -- 65
2017-07-19 13:00:00 24.3 23 Nordeste 37 Este 0 -- -- 66
2017-07-19 12:00:00 23.9 22 Este 37 Este 0 -- -- 67
2017-07-19 11:00:00 23.1 21 Nordeste 33 Nordeste 0 -- -- 71
2017-07-19 10:00:00 22.4 14 Nordeste 21 Nordeste 0 -- -- 74
2017-07-19 09:00:00 20.3 8 Nordeste 12 Nordeste 0 -- -- 83
2017-07-19 08:00:00 17.5 5 Norte 9 Noroeste 0 -- -- 93
2017-07-19 07:00:00 17.2 4 Noroeste 8 Nordeste 0 -- -- 92
2017-07-19 06:00:00 17.3 6 Noroeste 13 Noroeste 0 -- -- 92
2017-07-19 05:00:00 17.5 8 Norte 13 Norte 0 -- -- 92
2017-07-19 04:00:00 17.5 7 Norte 13 Nordeste 0 -- -- 92
2017-07-19 03:00:00 17.8 8 Nordeste 15 Nordeste 0 -- -- 92
2017-07-19 02:00:00 18.1 5 Norte 12 Nordeste 0 -- -- 90
2017-07-19 01:00:00 18.4 5 Norte 9 Nordeste 0 -- -- 90
2017-07-19 00:00:00 18.8 4 Nordeste 6 Nordeste 0 -- -- 88